Air Navigation Services of Czech Republic  
Last data update:  04.06.2020 11:03:27 UTC česká verze
   METEO Page displayed:  04.06.2020 11:04:56 UTC  
help
METAR EDDB 041050Z 12015KT 090V150 CAVOK 24/07 Q0995 TEMPO 11015G25KT=
METAR EDDC 041050Z 17011KT 140V210 9999 FEW045 22/09 Q0996 NOSIG=
METAR EDDE 041050Z 16003KT 100V250 9999 -RA FEW040 16/13 Q0995 NOSIG=
METAR EDDF 041050Z 31005KT 270V340 9999 -SHRA FEW007 FEW014CB SCT032 BKN080 15/14 Q0996 RESHRA NOSIG=
METAR EDDM 041050Z 28006KT 250V320 9999 SCT048 19/11 Q0998 NOSIG=
METAR EDDN 041050Z 15009KT 120V180 9999 BKN020 BKN035 19/14 Q0996 NOSIG=
METAR EDDP 041050Z 21008KT CAVOK 19/12 Q0995 NOSIG=
METAR EDDT 041050Z 13015KT 080V160 CAVOK 24/06 Q0995 TEMPO 13015G25KT=
METAR EDQM 041050Z 15005KT 100V210 9999 FEW015 BKN061 15/12 Q0997=
METAR EPBY 041100Z VRB05KT CAVOK 19/05 Q1000=
METAR EPGD 041100Z 07010KT 020V110 9999 FEW037 17/08 Q1001=
METAR EPKK 041100Z 08007KT 040V110 CAVOK 20/07 Q1000=
METAR EPKT 041100Z VRB05KT CAVOK 20/05 Q0999=
METAR EPLL 041100Z VRB04KT CAVOK 20/06 Q1000=
METAR EPPO 041100Z 10009KT 080V140 CAVOK 22/05 Q0998=
METAR EPRZ 041100Z 22008KT 120V250 CAVOK 19/07 Q1001=
METAR EPWA 041100Z 33004KT 290V040 9999 FEW053TCU 19/06 Q1000 NOSIG=
METAR EPWR 041100Z 14012KT 110V190 CAVOK 22/07 Q0998=
METAR LHBP 041100Z 20012KT 9999 BKN043 23/12 Q1001 NOSIG=
METAR LHSM 041045Z AUTO 23018KT 200V280 9999 FEW047 BKN160 24/13 Q1001=
METAR LKBC 041100Z AUTO 22006KT 9999 FEW071 OVC080 20/11 Q0998=
METAR LKCV 041100Z 12010KT CAVOK 23/10 Q0996 NOSIG RMK BLU BLU=
METAR LKKB 041100Z 18006KT 120V240 9999 FEW036 SCT100 BKN120 22/10 Q0997 NOSIG RMK BLU BLU=
METAR LKKU 041100Z 19007KT 140V250 9999 FEW048 23/11 Q0998=
METAR LKKV 041100Z 22003KT 9999 -RA FEW007 SCT021 14/12 Q0998 RMK REG QNH 0995=
METAR LKLN 041100Z AUTO 21004KT 9999 -RA SCT058 OVC078 16/13 Q0998=
METAR LKMT 041100Z VRB02KT 9999 FEW043 22/11 Q0998 TEMPO 21012KT RMK REG QNH 0995=
METAR LKNA 041100Z 14010KT 9999 FEW040 BKN090 19/11 Q0999 NOSIG RMK BLU BLU=
METAR LKPD 041100Z 10005KT 9999 FEW040 BKN200 22/12 Q0997 NOSIG RMK BLU BLU=
METAR LKPJ 041100Z AUTO 18007KT 150V230 9999 BKN110 21/12 Q0999=
METAR LKPR 041100Z 21010KT 170V230 9999 -RA SCT038 20/12 Q0997 NOSIG RMK REG QNH 0995=
METAR LKTB 041100Z 14008KT 090V170 9999 FEW040 22/12 Q0998 NOSIG RMK REG QNH 0995=
METAR LKVO 041100Z 13005KT 070V200 9999 FEW043 22/11 Q0997=
METAR LOWI 041050Z 02009KT 340V060 9999 FEW050 SCT100 19/08 Q0998 TEMPO 14015G25KT=
METAR LOWL 041050Z 28007KT 250V310 9999 FEW037 21/13 Q0998 NOSIG=
METAR LOWS 041050Z 32007KT 9999 FEW045 BKN120 20/12 Q0998 NOSIG=
METAR LOWW 041050Z 10009KT 050V130 9999 FEW045 22/15 Q0998 NOSIG=
METAR LZIB 041100Z 15005KT 080V210 9999 FEW036 22/13 Q0999 NOSIG=
METAR LZKZ 041100Z VRB03KT 9999 FEW022 SCT050 BKN080 16/12 Q1003 NOSIG=
METAR LZMC 041000Z 15008KT CAVOK 22/11 Q1000=
METAR LZPP 041100Z 14010KT 110V170 9999 FEW040 23/12 Q0999=
METAR LZSL 041100Z 11004KT 040V190 9999 BKN040 21/11 Q1001=
METAR LZTT 041100Z 15006KT 110V190 9999 FEW020 SCT043 15/11 Q1002 NOSIG=
METAR LZZI 041100Z 26005KT 220V290 9999 FEW040 21/11 Q0999=